createdAt,value
2024-01-25T00:00:54.793Z,21.82
2024-01-25T00:01:54.728Z,21.80
2024-01-25T00:02:54.701Z,21.80
2024-01-25T00:03:54.795Z,21.79
2024-01-25T00:04:55.305Z,21.80
2024-01-25T00:05:55.000Z,21.80
2024-01-25T00:06:55.144Z,21.79
2024-01-25T00:07:54.990Z,21.82
2024-01-25T00:08:55.046Z,21.80
2024-01-25T00:09:55.258Z,21.80
2024-01-25T00:10:55.219Z,21.77
2024-01-25T00:11:55.241Z,21.79
2024-01-25T00:12:55.361Z,21.77
2024-01-25T00:13:55.384Z,21.79
2024-01-25T00:14:55.408Z,21.80
2024-01-25T00:15:55.431Z,21.79
2024-01-25T00:16:55.385Z,21.77
2024-01-25T00:17:55.437Z,21.80
2024-01-25T00:18:55.549Z,21.80
2024-01-25T00:19:55.462Z,21.79
2024-01-25T00:20:55.473Z,21.73
2024-01-25T00:21:55.424Z,21.77
2024-01-25T00:22:55.414Z,21.77
2024-01-25T00:23:55.433Z,21.74
2024-01-25T00:24:55.514Z,21.76
2024-01-25T00:25:55.597Z,21.77
2024-01-25T00:26:55.669Z,21.74
2024-01-25T00:27:55.777Z,21.76
2024-01-25T00:28:55.782Z,21.76
2024-01-25T00:29:55.854Z,21.76
2024-01-25T00:30:55.993Z,21.79
2024-01-25T00:31:56.017Z,21.77
2024-01-25T00:32:56.150Z,21.79
2024-01-25T00:33:56.348Z,21.79
2024-01-25T00:34:56.437Z,21.77
2024-01-25T00:35:56.254Z,21.76
2024-01-25T00:36:56.418Z,21.77
2024-01-25T00:37:56.341Z,21.79
2024-01-25T00:38:56.432Z,21.79
2024-01-25T00:39:56.526Z,21.79
2024-01-25T00:40:56.543Z,21.79
2024-01-25T00:41:56.619Z,21.77
2024-01-25T00:42:56.745Z,21.77
2024-01-25T00:43:56.766Z,21.79
2024-01-25T00:44:56.823Z,21.77
2024-01-25T00:45:56.898Z,21.76
2024-01-25T00:46:56.911Z,21.77
2024-01-25T00:47:57.064Z,21.77
2024-01-25T00:48:57.332Z,21.80
2024-01-25T00:49:57.248Z,21.76
2024-01-25T00:50:57.198Z,21.79
2024-01-25T00:51:57.300Z,21.76
2024-01-25T00:52:57.339Z,21.76
2024-01-25T00:53:57.389Z,21.76
2024-01-25T00:54:57.520Z,21.74
2024-01-25T00:55:57.538Z,21.74
2024-01-25T00:56:57.598Z,21.76
2024-01-25T00:57:57.670Z,21.76
2024-01-25T00:58:57.729Z,21.74
2024-01-25T00:59:57.818Z,21.73
2024-01-25T01:00:58.005Z,21.74
2024-01-25T01:01:58.051Z,21.74
2024-01-25T01:02:58.029Z,21.74
2024-01-25T01:03:58.150Z,21.74
2024-01-25T01:04:58.240Z,21.74
2024-01-25T01:05:58.222Z,21.76
2024-01-25T01:06:58.407Z,21.76
2024-01-25T01:07:58.420Z,21.74
2024-01-25T01:08:58.445Z,21.77
2024-01-25T01:09:58.549Z,21.73
2024-01-25T01:10:58.549Z,21.73
2024-01-25T01:11:58.633Z,21.74
2024-01-25T01:12:58.779Z,21.76
2024-01-25T01:13:58.755Z,21.77
2024-01-25T01:14:58.855Z,21.76
2024-01-25T01:15:59.037Z,21.76
2024-01-25T01:16:58.980Z,21.74
2024-01-25T01:17:59.180Z,21.73
2024-01-25T01:18:59.208Z,21.73
2024-01-25T01:19:59.307Z,21.73
2024-01-25T01:20:59.272Z,21.73
2024-01-25T01:21:59.336Z,21.72
2024-01-25T01:22:59.395Z,21.74
2024-01-25T01:23:59.432Z,21.73
2024-01-25T01:24:59.595Z,21.74
2024-01-25T01:25:59.585Z,21.70
2024-01-25T01:26:59.710Z,21.76
2024-01-25T01:27:59.745Z,21.76
2024-01-25T01:28:59.802Z,21.74
2024-01-25T01:29:59.898Z,21.74
2024-01-25T01:30:59.991Z,21.74
2024-01-25T01:31:59.995Z,21.73
2024-01-25T01:33:00.123Z,21.74
2024-01-25T01:34:00.268Z,21.76
2024-01-25T01:35:00.417Z,21.74
2024-01-25T01:36:00.285Z,21.74
2024-01-25T01:37:00.352Z,21.74
2024-01-25T01:38:00.442Z,21.73
2024-01-25T01:39:00.518Z,21.73
2024-01-25T01:40:00.697Z,21.73
2024-01-25T01:41:00.624Z,21.73
2024-01-25T01:42:00.668Z,21.72
2024-01-25T01:43:00.848Z,21.77
2024-01-25T01:44:00.834Z,21.73
2024-01-25T01:45:00.920Z,21.72
2024-01-25T01:46:00.978Z,21.73
2024-01-25T01:47:01.029Z,21.74
2024-01-25T01:48:01.503Z,21.73
2024-01-25T01:49:01.413Z,21.70
2024-01-25T01:50:01.470Z,21.73
2024-01-25T01:51:01.396Z,21.74
2024-01-25T01:52:01.476Z,21.72
2024-01-25T01:53:01.472Z,21.74
2024-01-25T01:54:01.520Z,21.74
2024-01-25T01:55:01.669Z,21.73
2024-01-25T01:56:01.656Z,21.70
2024-01-25T01:57:01.732Z,21.73
2024-01-25T01:58:01.860Z,21.70
2024-01-25T01:59:01.854Z,21.72
2024-01-25T02:00:01.942Z,21.72
2024-01-25T02:01:02.087Z,21.70
2024-01-25T02:02:02.192Z,21.72
2024-01-25T02:03:02.137Z,21.70
2024-01-25T02:04:02.316Z,21.72
2024-01-25T02:05:02.498Z,21.72
2024-01-25T02:06:02.393Z,21.70
2024-01-25T02:07:02.515Z,21.72
2024-01-25T02:08:02.494Z,21.67
2024-01-25T02:09:02.564Z,21.69
2024-01-25T02:10:02.750Z,21.69
2024-01-25T02:11:02.722Z,21.70
2024-01-25T02:12:02.792Z,21.69
2024-01-25T02:13:02.927Z,21.72
2024-01-25T02:14:02.903Z,21.69
2024-01-25T02:15:03.002Z,21.69
2024-01-25T02:16:03.122Z,21.70
2024-01-25T02:17:03.221Z,21.70
2024-01-25T02:18:03.190Z,21.69
2024-01-25T02:19:03.374Z,21.70
2024-01-25T02:20:03.734Z,21.67
2024-01-25T02:21:03.422Z,21.69
2024-01-25T02:22:03.574Z,21.69
2024-01-25T02:23:03.574Z,21.69
2024-01-25T02:24:03.627Z,21.70
2024-01-25T02:25:03.785Z,21.70
2024-01-25T02:26:03.720Z,21.70
2024-01-25T02:27:03.828Z,21.70
2024-01-25T02:28:03.920Z,21.69
2024-01-25T02:29:03.936Z,21.67
2024-01-25T02:30:08.696Z,21.69
2024-01-25T02:31:04.208Z,21.67
2024-01-25T02:32:04.041Z,21.70
2024-01-25T02:33:04.114Z,21.69
2024-01-25T02:34:04.189Z,21.69
2024-01-25T02:35:04.101Z,21.69
2024-01-25T02:36:04.029Z,21.67
2024-01-25T02:37:04.058Z,21.69
2024-01-25T02:38:04.019Z,21.72
2024-01-25T02:39:04.037Z,21.67
2024-01-25T02:40:04.109Z,21.69
2024-01-25T02:41:04.024Z,21.70
2024-01-25T02:42:04.048Z,21.66
2024-01-25T02:43:04.181Z,21.70
2024-01-25T02:44:04.226Z,21.69
2024-01-25T02:45:04.292Z,21.69
2024-01-25T02:46:04.357Z,21.69
2024-01-25T02:47:04.428Z,21.69
2024-01-25T02:48:04.556Z,21.67
2024-01-25T02:49:04.676Z,21.69
2024-01-25T02:50:04.655Z,21.67
2024-01-25T02:51:04.662Z,21.66
2024-01-25T02:52:04.785Z,21.66
2024-01-25T02:53:04.805Z,21.66
2024-01-25T02:54:04.910Z,21.67
2024-01-25T02:55:05.001Z,21.69
2024-01-25T02:56:05.005Z,21.67
2024-01-25T02:57:05.083Z,21.66
2024-01-25T02:58:05.273Z,21.67
2024-01-25T02:59:05.235Z,21.70
2024-01-25T03:00:05.285Z,21.67
2024-01-25T03:01:05.437Z,21.66
2024-01-25T03:02:05.658Z,21.66
2024-01-25T03:03:05.477Z,21.66
2024-01-25T03:04:05.674Z,21.66
2024-01-25T03:05:05.747Z,21.67
2024-01-25T03:06:05.799Z,21.64
2024-01-25T03:07:05.948Z,21.64
2024-01-25T03:08:05.854Z,21.66
2024-01-25T03:09:05.956Z,21.67
2024-01-25T03:10:06.015Z,21.67
2024-01-25T03:11:06.015Z,21.64
2024-01-25T03:12:06.090Z,21.67
2024-01-25T03:13:06.190Z,21.66
2024-01-25T03:14:06.207Z,21.67
2024-01-25T03:15:07.237Z,21.64
2024-01-25T03:16:06.346Z,21.66
2024-01-25T03:17:06.383Z,21.67
2024-01-25T03:18:06.580Z,21.66
2024-01-25T03:19:06.671Z,21.70
2024-01-25T03:20:06.725Z,21.66
2024-01-25T03:21:06.601Z,21.64
2024-01-25T03:22:06.801Z,21.64
2024-01-25T03:23:06.770Z,21.66
2024-01-25T03:24:06.837Z,21.64
2024-01-25T03:25:07.036Z,21.67
2024-01-25T03:26:06.920Z,21.69
2024-01-25T03:27:06.954Z,21.64
2024-01-25T03:28:07.135Z,21.66
2024-01-25T03:29:07.088Z,21.66
2024-01-25T03:30:07.207Z,21.66
2024-01-25T03:31:07.252Z,21.66
2024-01-25T03:32:07.245Z,21.63
2024-01-25T03:33:07.439Z,21.67
2024-01-25T03:34:07.503Z,21.64
2024-01-25T03:35:07.498Z,21.67
2024-01-25T03:36:07.483Z,21.64
2024-01-25T03:37:07.555Z,21.64
2024-01-25T03:38:07.578Z,21.63
2024-01-25T03:39:07.684Z,21.63
2024-01-25T03:40:07.838Z,21.64
2024-01-25T03:41:07.744Z,21.63
2024-01-25T03:42:07.817Z,21.64
2024-01-25T03:43:14.096Z,21.62
2024-01-25T03:44:08.932Z,21.63
2024-01-25T03:45:07.895Z,21.62
2024-01-25T03:46:07.952Z,21.63
2024-01-25T03:47:07.892Z,21.63
2024-01-25T03:48:07.984Z,21.64
2024-01-25T03:49:07.996Z,21.63
2024-01-25T03:50:08.061Z,21.66
2024-01-25T03:51:07.903Z,21.66
2024-01-25T03:52:07.983Z,21.66
2024-01-25T03:53:08.012Z,21.63
2024-01-25T03:54:08.076Z,21.64
2024-01-25T03:55:08.323Z,21.64
2024-01-25T03:56:08.199Z,21.64
2024-01-25T03:57:08.331Z,21.66
2024-01-25T03:58:08.376Z,21.64
2024-01-25T03:59:08.397Z,21.62
2024-01-25T04:00:08.486Z,21.64
2024-01-25T04:01:08.649Z,21.64
2024-01-25T04:02:08.724Z,21.63
2024-01-25T04:03:08.840Z,21.63
2024-01-25T04:04:08.832Z,21.63
2024-01-25T04:05:08.843Z,21.66
2024-01-25T04:06:08.965Z,21.63
2024-01-25T04:07:08.968Z,21.60
2024-01-25T04:08:09.009Z,21.62
2024-01-25T04:09:09.055Z,21.63
2024-01-25T04:10:09.196Z,21.62
2024-01-25T04:11:09.272Z,21.63
2024-01-25T04:12:09.298Z,21.63
2024-01-25T04:13:09.437Z,21.62
2024-01-25T04:14:09.379Z,21.63
2024-01-25T04:15:09.486Z,21.62
2024-01-25T04:16:09.612Z,21.62
2024-01-25T04:17:09.652Z,21.62
2024-01-25T04:18:09.764Z,21.63
2024-01-25T04:19:09.902Z,21.63
2024-01-25T04:20:09.982Z,21.59
2024-01-25T04:21:09.911Z,21.63
2024-01-25T04:22:09.960Z,21.64
2024-01-25T04:23:10.072Z,21.62
2024-01-25T04:24:10.113Z,21.62
2024-01-25T04:25:10.265Z,21.63
2024-01-25T04:26:10.270Z,21.60
2024-01-25T04:27:10.336Z,21.63
2024-01-25T04:28:10.516Z,21.60
2024-01-25T04:29:10.489Z,21.60
2024-01-25T04:30:10.556Z,21.60
2024-01-25T04:31:10.671Z,21.62
2024-01-25T04:32:10.783Z,21.62
2024-01-25T04:33:10.827Z,21.59
2024-01-25T04:34:10.956Z,21.62
2024-01-25T04:35:11.077Z,21.60
2024-01-25T04:36:10.955Z,21.62
2024-01-25T04:37:11.068Z,21.59
2024-01-25T04:38:11.085Z,21.57
2024-01-25T04:39:11.176Z,21.60
2024-01-25T04:40:11.305Z,21.59
2024-01-25T04:41:11.451Z,21.60
2024-01-25T04:42:11.367Z,21.59
2024-01-25T04:43:18.676Z,21.57
2024-01-25T04:44:18.648Z,21.57
2024-01-25T04:45:18.663Z,21.59
2024-01-25T04:46:18.732Z,21.57
2024-01-25T04:47:18.689Z,21.57
2024-01-25T04:48:18.752Z,21.60
2024-01-25T04:49:18.756Z,21.57
2024-01-25T04:50:18.770Z,21.59
2024-01-25T04:51:18.654Z,21.59
2024-01-25T04:52:18.949Z,21.56
2024-01-25T04:53:18.665Z,21.60
2024-01-25T04:54:18.666Z,21.60
2024-01-25T04:55:18.810Z,21.60
2024-01-25T04:56:18.666Z,21.60
2024-01-25T04:57:18.662Z,21.59
2024-01-25T04:58:18.819Z,21.57
2024-01-25T04:59:18.652Z,21.57
2024-01-25T05:00:18.693Z,21.59
2024-01-25T05:01:18.747Z,21.59
2024-01-25T05:02:18.740Z,21.59
2024-01-25T05:03:18.701Z,21.60
2024-01-25T05:04:18.794Z,21.59
2024-01-25T05:05:18.715Z,21.60
2024-01-25T05:06:18.657Z,21.60
2024-01-25T05:07:18.809Z,21.56
2024-01-25T05:08:18.849Z,21.57
2024-01-25T05:09:18.657Z,21.56
2024-01-25T05:10:18.672Z,21.57
2024-01-25T05:11:18.691Z,21.53
2024-01-25T05:12:18.679Z,21.56
2024-01-25T05:13:18.915Z,21.56
2024-01-25T05:14:18.841Z,21.53
2024-01-25T05:15:18.905Z,21.56
2024-01-25T05:16:19.030Z,21.56
2024-01-25T05:17:19.029Z,21.53
2024-01-25T05:18:19.231Z,21.54
2024-01-25T05:19:19.287Z,21.54
2024-01-25T05:20:19.444Z,21.54
2024-01-25T05:21:19.359Z,21.54
2024-01-25T05:22:19.582Z,21.53
2024-01-25T05:23:19.480Z,21.56
2024-01-25T05:24:19.577Z,21.54
2024-01-25T05:25:19.839Z,21.56
2024-01-25T05:26:19.679Z,21.54
2024-01-25T05:27:19.771Z,21.56
2024-01-25T05:28:19.860Z,21.54
2024-01-25T05:29:19.925Z,21.54
2024-01-25T05:30:19.974Z,21.54
2024-01-25T05:31:20.175Z,21.56
2024-01-25T05:32:20.105Z,21.56
2024-01-25T05:33:20.250Z,21.56
2024-01-25T05:34:20.337Z,21.54
2024-01-25T05:35:20.416Z,21.56
2024-01-25T05:36:20.381Z,21.56
2024-01-25T05:37:20.527Z,21.53
2024-01-25T05:38:20.537Z,21.57
2024-01-25T05:39:20.586Z,21.56
2024-01-25T05:40:20.909Z,21.54
2024-01-25T05:41:20.707Z,21.57
2024-01-25T05:42:20.785Z,21.56
2024-01-25T05:43:21.032Z,21.57
2024-01-25T05:44:20.906Z,21.57
2024-01-25T05:45:21.015Z,21.56
2024-01-25T05:46:21.164Z,21.60
2024-01-25T05:47:21.134Z,21.57
2024-01-25T05:48:21.235Z,21.59
2024-01-25T05:49:21.489Z,21.60
2024-01-25T05:50:21.510Z,21.60
2024-01-25T05:51:21.418Z,21.57
2024-01-25T05:52:21.525Z,21.56
2024-01-25T05:53:21.524Z,21.53
2024-01-25T05:54:21.579Z,21.49
2024-01-25T05:55:21.716Z,21.48
2024-01-25T05:56:21.701Z,21.48
2024-01-25T05:57:21.737Z,21.46
2024-01-25T05:58:21.747Z,21.43
2024-01-25T05:59:21.793Z,21.43
2024-01-25T06:00:22.133Z,21.35
2024-01-25T06:01:21.876Z,21.30
2024-01-25T06:02:21.873Z,21.29
2024-01-25T06:03:21.848Z,21.26
2024-01-25T06:04:21.934Z,21.22
2024-01-25T06:05:22.080Z,21.28
2024-01-25T06:06:21.970Z,21.28
2024-01-25T06:07:22.069Z,21.29
2024-01-25T06:08:21.934Z,21.32
2024-01-25T06:09:21.933Z,21.32
2024-01-25T06:10:22.028Z,21.32
2024-01-25T06:11:21.937Z,21.33
2024-01-25T06:12:21.953Z,21.25
2024-01-25T06:13:22.084Z,21.29
2024-01-25T06:14:21.914Z,21.25
2024-01-25T06:15:21.913Z,21.26
2024-01-25T06:16:22.022Z,21.28
2024-01-25T06:17:21.926Z,21.29
2024-01-25T06:18:24.326Z,21.30
2024-01-25T06:19:22.255Z,21.33
2024-01-25T06:20:22.294Z,21.39
2024-01-25T06:21:22.188Z,21.36
2024-01-25T06:22:22.330Z,21.39
2024-01-25T06:23:22.208Z,21.42
2024-01-25T06:24:22.211Z,21.38
2024-01-25T06:25:22.346Z,21.38
2024-01-25T06:26:22.218Z,21.38
2024-01-25T06:27:22.238Z,21.36
2024-01-25T06:28:22.403Z,21.33
2024-01-25T06:29:22.323Z,21.36
2024-01-25T06:30:22.351Z,21.29
2024-01-25T06:31:22.483Z,21.32
2024-01-25T06:32:26.585Z,21.32
2024-01-25T06:33:22.479Z,21.38
2024-01-25T06:34:22.553Z,21.38
2024-01-25T06:35:22.565Z,21.40
2024-01-25T06:36:22.437Z,21.46
2024-01-25T06:37:22.545Z,21.45
2024-01-25T06:38:22.441Z,21.42
2024-01-25T06:39:22.448Z,21.48
2024-01-25T06:40:22.592Z,21.52
2024-01-25T06:41:22.420Z,21.54
2024-01-25T06:42:22.504Z,21.60
2024-01-25T06:43:22.527Z,21.53
2024-01-25T06:44:22.413Z,21.52
2024-01-25T06:45:22.813Z,21.56
2024-01-25T06:46:22.631Z,21.54
2024-01-25T06:47:24.204Z,21.56
2024-01-25T06:48:23.003Z,21.60
2024-01-25T06:49:23.413Z,21.60
2024-01-25T06:50:22.571Z,21.63
2024-01-25T06:51:22.451Z,21.62
2024-01-25T06:52:22.478Z,21.66
2024-01-25T06:53:22.437Z,21.69
2024-01-25T06:54:22.462Z,21.69
2024-01-25T06:55:22.547Z,21.70
2024-01-25T06:56:22.447Z,21.73
2024-01-25T06:57:22.447Z,21.77
2024-01-25T06:58:22.585Z,21.79
2024-01-25T06:59:22.440Z,21.80
2024-01-25T07:00:22.449Z,21.74
2024-01-25T07:01:22.578Z,21.74
2024-01-25T07:02:22.780Z,21.73
2024-01-25T07:03:22.538Z,21.77
2024-01-25T07:04:22.570Z,21.79
2024-01-25T07:05:22.584Z,21.79
2024-01-25T07:06:22.765Z,21.74
2024-01-25T07:07:22.635Z,21.80
2024-01-25T07:08:22.651Z,21.87
2024-01-25T07:09:22.677Z,21.90
2024-01-25T07:10:22.823Z,21.89
2024-01-25T07:11:22.773Z,21.86
2024-01-25T07:12:22.787Z,21.89
2024-01-25T07:13:22.990Z,21.92
2024-01-25T07:14:22.934Z,21.90
2024-01-25T07:15:23.000Z,21.89
2024-01-25T07:16:23.491Z,21.90
2024-01-25T07:17:23.149Z,21.92
2024-01-25T07:18:23.330Z,21.90
2024-01-25T07:19:23.396Z,21.92
2024-01-25T07:20:24.549Z,21.93
2024-01-25T07:21:23.388Z,21.90
2024-01-25T07:22:23.630Z,21.96
2024-01-25T07:23:23.532Z,21.99
2024-01-25T07:24:23.571Z,22.01
2024-01-25T07:25:24.037Z,22.00
2024-01-25T07:26:23.707Z,22.06
2024-01-25T07:27:23.808Z,22.03
2024-01-25T07:28:23.934Z,22.07
2024-01-25T07:29:23.916Z,22.08
2024-01-25T07:30:24.014Z,22.04
2024-01-25T07:31:24.206Z,22.10
2024-01-25T07:32:24.146Z,22.11
2024-01-25T07:33:24.284Z,22.13
2024-01-25T07:34:24.482Z,22.10
2024-01-25T07:35:24.616Z,22.06
2024-01-25T07:36:25.813Z,22.00
2024-01-25T07:37:24.540Z,22.01
2024-01-25T07:38:24.528Z,22.01
2024-01-25T07:39:24.611Z,22.01
2024-01-25T07:40:24.842Z,22.03
2024-01-25T07:41:24.885Z,22.03
2024-01-25T07:42:24.813Z,22.04
2024-01-25T07:43:25.064Z,22.04
2024-01-25T07:44:24.927Z,22.08
2024-01-25T07:45:24.994Z,22.07
2024-01-25T07:46:25.179Z,22.17
2024-01-25T07:47:25.120Z,22.07
2024-01-25T07:48:25.323Z,22.14
2024-01-25T07:49:26.013Z,22.07
2024-01-25T07:50:25.459Z,22.13
2024-01-25T07:51:25.389Z,22.11
2024-01-25T07:52:27.518Z,22.17
2024-01-25T07:53:25.514Z,22.20
2024-01-25T07:54:25.633Z,22.18
2024-01-25T07:55:25.675Z,22.24
2024-01-25T07:56:25.692Z,22.27
2024-01-25T07:57:25.827Z,22.30
2024-01-25T07:58:26.104Z,22.31
2024-01-25T07:59:25.929Z,22.36
2024-01-25T08:00:26.020Z,22.36
2024-01-25T08:01:26.130Z,22.37
2024-01-25T08:02:26.292Z,22.38
2024-01-25T08:03:26.199Z,22.37
2024-01-25T08:04:26.314Z,22.40
2024-01-25T08:05:34.322Z,22.41
2024-01-25T08:06:27.366Z,22.41
2024-01-25T08:07:26.402Z,22.41
2024-01-25T08:08:26.332Z,22.48
2024-01-25T08:09:26.321Z,22.47
2024-01-25T08:10:26.608Z,22.48
2024-01-25T08:11:26.339Z,22.48
2024-01-25T08:12:26.306Z,22.50
2024-01-25T08:13:26.366Z,22.52
2024-01-25T08:14:26.361Z,22.50
2024-01-25T08:15:26.347Z,22.55
2024-01-25T08:16:26.482Z,22.52
2024-01-25T08:17:26.586Z,22.55
2024-01-25T08:18:26.796Z,22.54
2024-01-25T08:19:26.824Z,22.54
2024-01-25T08:20:26.842Z,22.55
2024-01-25T08:21:26.848Z,22.57
2024-01-25T08:22:26.934Z,22.55
2024-01-25T08:23:27.066Z,22.54
2024-01-25T08:24:26.984Z,22.51
2024-01-25T08:25:27.052Z,22.51
2024-01-25T08:26:27.096Z,22.50
2024-01-25T08:27:27.194Z,22.52
2024-01-25T08:28:27.409Z,22.55
2024-01-25T08:29:27.370Z,22.55
2024-01-25T08:30:27.368Z,22.55
2024-01-25T08:31:27.509Z,22.57
2024-01-25T08:32:27.587Z,22.57
2024-01-25T08:33:27.726Z,22.57
2024-01-25T08:34:27.889Z,22.58
2024-01-25T08:35:27.808Z,22.58
2024-01-25T08:36:27.780Z,22.58
2024-01-25T08:37:27.922Z,22.43
2024-01-25T08:38:27.911Z,22.50
2024-01-25T08:39:28.859Z,22.51
2024-01-25T08:40:30.516Z,22.55
2024-01-25T08:41:28.041Z,22.50
2024-01-25T08:42:28.045Z,22.48
2024-01-25T08:43:28.103Z,22.50
2024-01-25T08:44:28.023Z,22.51
2024-01-25T08:45:28.034Z,22.48
2024-01-25T08:46:28.137Z,22.47
2024-01-25T08:47:28.323Z,22.51
2024-01-25T08:48:28.128Z,22.57
2024-01-25T08:49:28.235Z,22.58
2024-01-25T08:50:28.212Z,22.62
2024-01-25T08:51:28.055Z,22.67
2024-01-25T08:52:28.942Z,22.70
2024-01-25T08:53:28.098Z,22.71
2024-01-25T08:54:28.048Z,22.71
2024-01-25T08:55:28.076Z,22.67
2024-01-25T08:56:28.089Z,22.72
2024-01-25T08:57:28.038Z,22.70
2024-01-25T08:58:28.336Z,22.70
2024-01-25T08:59:28.088Z,22.71
2024-01-25T09:00:28.075Z,22.68
2024-01-25T09:01:28.107Z,22.65
2024-01-25T09:02:28.290Z,22.67
2024-01-25T09:03:28.088Z,22.67
2024-01-25T09:04:28.176Z,22.65
2024-01-25T09:05:28.167Z,22.68
2024-01-25T09:06:28.089Z,22.65
2024-01-25T09:07:28.149Z,22.67
2024-01-25T09:08:28.152Z,22.70
2024-01-25T09:09:28.053Z,22.71
2024-01-25T09:10:28.122Z,22.70
2024-01-25T09:11:28.070Z,22.68
2024-01-25T09:12:28.061Z,22.68
2024-01-25T09:13:28.170Z,22.68
2024-01-25T09:14:28.083Z,22.68
2024-01-25T09:15:28.096Z,22.67
2024-01-25T09:16:28.157Z,22.67
2024-01-25T09:17:28.218Z,22.71
2024-01-25T09:18:28.238Z,22.67
2024-01-25T09:19:28.255Z,22.68
2024-01-25T09:20:28.178Z,22.65
2024-01-25T09:21:28.073Z,22.72
2024-01-25T09:22:28.285Z,22.71
2024-01-25T09:23:28.258Z,22.71
2024-01-25T09:24:28.283Z,22.74
2024-01-25T09:25:28.346Z,22.72
2024-01-25T09:26:28.369Z,22.64
2024-01-25T09:27:28.400Z,22.68
2024-01-25T09:28:28.513Z,22.70
2024-01-25T09:29:28.620Z,22.70
2024-01-25T09:30:28.606Z,22.74
2024-01-25T09:31:28.676Z,22.72
2024-01-25T09:32:28.742Z,22.75
2024-01-25T09:33:28.875Z,22.76
2024-01-25T09:34:29.096Z,22.71
2024-01-25T09:35:30.092Z,22.65
2024-01-25T09:36:28.925Z,22.61
2024-01-25T09:37:29.070Z,22.61
2024-01-25T09:38:29.033Z,22.71
2024-01-25T09:39:29.104Z,22.67
2024-01-25T09:40:29.219Z,22.67
2024-01-25T09:41:29.120Z,22.67
2024-01-25T09:42:29.180Z,22.67
2024-01-25T09:43:29.333Z,22.67
2024-01-25T09:44:29.183Z,22.72
2024-01-25T09:45:29.292Z,22.72
2024-01-25T09:46:29.264Z,22.72
2024-01-25T09:47:29.203Z,22.76
2024-01-25T09:48:29.320Z,22.79
2024-01-25T09:49:29.361Z,22.84
2024-01-25T09:50:29.388Z,22.78
2024-01-25T09:51:29.206Z,22.84
2024-01-25T09:52:29.374Z,22.87
2024-01-25T09:53:29.204Z,22.88
2024-01-25T09:54:30.231Z,22.90
2024-01-25T09:55:29.331Z,22.92
2024-01-25T09:56:29.229Z,22.94
2024-01-25T09:57:29.241Z,22.95
2024-01-25T09:58:29.383Z,22.94
2024-01-25T09:59:29.236Z,22.99
2024-01-25T10:00:31.174Z,22.95
2024-01-25T10:01:29.399Z,22.97
2024-01-25T10:02:29.330Z,22.98
2024-01-25T10:03:29.264Z,22.97
2024-01-25T10:04:29.380Z,22.97
2024-01-25T10:05:29.451Z,22.98
2024-01-25T10:06:29.334Z,22.98
2024-01-25T10:07:29.327Z,22.95
2024-01-25T10:08:29.379Z,22.95
2024-01-25T10:09:29.296Z,22.92
2024-01-25T10:10:29.466Z,22.92
2024-01-25T10:11:29.302Z,22.91
2024-01-25T10:12:29.261Z,22.91
2024-01-25T10:13:29.372Z,22.90
2024-01-25T10:14:29.313Z,22.87
2024-01-25T10:15:29.289Z,22.91
2024-01-25T10:16:29.481Z,22.90
2024-01-25T10:17:46.565Z,22.91
2024-01-25T10:18:31.135Z,22.91
2024-01-25T10:19:29.568Z,22.91
2024-01-25T10:20:31.621Z,22.90
2024-01-25T10:21:29.458Z,22.91
2024-01-25T10:22:29.542Z,22.88
2024-01-25T10:23:29.403Z,22.90
2024-01-25T10:24:29.473Z,22.85
2024-01-25T10:25:29.581Z,22.87
2024-01-25T10:26:29.314Z,22.84
2024-01-25T10:27:29.291Z,22.82
2024-01-25T10:28:30.076Z,22.84
2024-01-25T10:29:29.353Z,22.82
2024-01-25T10:30:29.303Z,22.84
2024-01-25T10:31:29.591Z,22.82
2024-01-25T10:32:29.359Z,22.82
2024-01-25T10:33:29.473Z,22.79
2024-01-25T10:34:29.667Z,22.79
2024-01-25T10:35:29.611Z,22.79
2024-01-25T10:36:29.330Z,22.81
2024-01-25T10:37:29.541Z,22.78
2024-01-25T10:38:29.333Z,22.79
2024-01-25T10:39:29.395Z,22.81
2024-01-25T10:40:29.644Z,22.70
2024-01-25T10:41:29.822Z,22.64
2024-01-25T10:42:29.541Z,22.64
2024-01-25T10:43:29.804Z,22.59
2024-01-25T10:44:29.617Z,22.62
2024-01-25T10:45:29.651Z,22.62
2024-01-25T10:46:29.695Z,22.64
2024-01-25T10:47:29.753Z,22.71
2024-01-25T10:48:29.886Z,22.71
2024-01-25T10:49:29.874Z,22.74
2024-01-25T10:50:29.865Z,22.79
2024-01-25T10:51:29.742Z,22.81
2024-01-25T10:52:29.804Z,22.78
2024-01-25T10:53:29.762Z,22.81
2024-01-25T10:54:29.783Z,22.78
2024-01-25T10:55:29.931Z,22.87
2024-01-25T10:56:29.841Z,22.91
2024-01-25T10:57:29.798Z,22.91
2024-01-25T10:58:30.032Z,22.95
2024-01-25T10:59:29.827Z,22.92
2024-01-25T11:00:29.852Z,22.94
2024-01-25T11:01:30.003Z,22.95
2024-01-25T11:02:30.100Z,22.97
2024-01-25T11:03:30.050Z,22.99
2024-01-25T11:04:30.184Z,23.06
2024-01-25T11:05:30.367Z,23.03
2024-01-25T11:06:30.778Z,23.06
2024-01-25T11:07:30.230Z,23.05
2024-01-25T11:08:30.256Z,23.09
2024-01-25T11:09:30.337Z,23.09
2024-01-25T11:10:30.585Z,23.12
2024-01-25T11:11:30.448Z,23.13
2024-01-25T11:12:31.571Z,23.16
2024-01-25T11:13:30.701Z,23.18
2024-01-25T11:14:30.625Z,23.18
2024-01-25T11:15:30.730Z,23.19
2024-01-25T11:16:30.965Z,23.21
2024-01-25T11:17:30.822Z,23.25
2024-01-25T11:18:31.870Z,23.23
2024-01-25T11:19:30.980Z,23.23
2024-01-25T11:20:31.204Z,23.23
2024-01-25T11:21:30.914Z,23.25
2024-01-25T11:22:30.941Z,23.26
2024-01-25T11:23:30.881Z,23.29
2024-01-25T11:24:30.854Z,23.26
2024-01-25T11:25:30.950Z,23.29
2024-01-25T11:26:30.881Z,23.27
2024-01-25T11:27:30.835Z,23.29
2024-01-25T11:28:30.916Z,23.29
2024-01-25T11:29:30.831Z,23.30
2024-01-25T11:30:30.849Z,23.26
2024-01-25T11:31:31.016Z,23.26
2024-01-25T11:32:30.899Z,23.26
2024-01-25T11:33:30.952Z,23.26
2024-01-25T11:34:30.942Z,23.19
2024-01-25T11:35:31.105Z,23.16
2024-01-25T11:36:30.844Z,23.21
2024-01-25T11:37:30.947Z,23.18
2024-01-25T11:38:30.891Z,23.13
2024-01-25T11:39:30.897Z,23.19
2024-01-25T11:40:32.294Z,23.23
2024-01-25T11:41:30.861Z,23.27
2024-01-25T11:42:30.888Z,23.29
2024-01-25T11:43:30.887Z,23.29
2024-01-25T11:44:30.862Z,23.23
2024-01-25T11:45:30.889Z,23.22
2024-01-25T11:46:31.803Z,23.26
2024-01-25T11:47:30.900Z,23.26
2024-01-25T11:48:30.948Z,23.22
2024-01-25T11:49:31.007Z,23.22
2024-01-25T11:50:31.006Z,23.19
2024-01-25T11:51:30.892Z,23.21
2024-01-25T11:52:31.626Z,23.16
2024-01-25T11:53:30.946Z,23.15
2024-01-25T11:54:30.912Z,23.15
2024-01-25T11:55:31.022Z,23.12
2024-01-25T11:56:30.953Z,23.12
2024-01-25T11:57:30.968Z,23.09
2024-01-25T11:58:34.260Z,23.08
2024-01-25T11:59:30.934Z,23.11
2024-01-25T12:00:30.985Z,23.05
2024-01-25T12:01:31.023Z,23.11
2024-01-25T12:02:31.045Z,23.09
2024-01-25T12:03:30.938Z,23.09
2024-01-25T12:04:32.894Z,23.11
2024-01-25T12:05:31.171Z,23.11
2024-01-25T12:06:31.097Z,23.11
2024-01-25T12:07:31.021Z,23.11
2024-01-25T12:08:30.947Z,23.08
2024-01-25T12:09:31.001Z,23.09
2024-01-25T12:10:30.988Z,23.06
2024-01-25T12:11:30.954Z,23.12
2024-01-25T12:12:30.948Z,23.06
2024-01-25T12:13:30.998Z,23.08
2024-01-25T12:14:31.007Z,23.08
2024-01-25T12:15:30.963Z,23.08
2024-01-25T12:16:32.345Z,23.11
2024-01-25T12:17:31.140Z,23.12
2024-01-25T12:18:31.142Z,23.08
2024-01-25T12:19:31.164Z,23.08
2024-01-25T12:20:31.259Z,23.09
2024-01-25T12:21:31.192Z,23.12
2024-01-25T12:22:33.830Z,23.06
2024-01-25T12:23:32.198Z,23.05
2024-01-25T12:24:31.229Z,23.03
2024-01-25T12:25:31.352Z,23.01
2024-01-25T12:26:31.193Z,22.99
2024-01-25T12:27:31.211Z,23.01
2024-01-25T12:28:31.347Z,23.02
2024-01-25T12:29:31.220Z,23.03
2024-01-25T12:30:31.284Z,23.02
2024-01-25T12:31:31.359Z,23.06
2024-01-25T12:32:31.335Z,23.08
2024-01-25T12:33:31.429Z,23.08
2024-01-25T12:34:32.695Z,23.03
2024-01-25T12:35:31.633Z,23.02
2024-01-25T12:36:31.586Z,23.08
2024-01-25T12:37:31.832Z,22.99
2024-01-25T12:38:31.702Z,22.97
2024-01-25T12:39:31.758Z,22.99
2024-01-25T12:40:31.896Z,22.95
2024-01-25T12:41:31.993Z,23.01
2024-01-25T12:42:31.947Z,22.99
2024-01-25T12:43:32.616Z,23.02
2024-01-25T12:44:34.339Z,23.02
2024-01-25T12:45:32.088Z,23.08
2024-01-25T12:47:32.373Z,23.06
2024-01-25T12:48:32.136Z,23.08
2024-01-25T12:49:32.123Z,23.05
2024-01-25T12:50:32.903Z,23.03
2024-01-25T12:51:32.150Z,23.03
2024-01-25T12:52:32.073Z,22.98
2024-01-25T12:53:32.102Z,22.92
2024-01-25T12:54:32.162Z,22.92